.
WxDataArchive / Data Records for 2016-02-13
2016-02-12 February 2016 2016-02-14

Data Records for Saturday, 13 February 2016

Time	Temp	Chill	HIndex	Humid	Dewpt	 Wind 	HiWind	WindDir	Rain 	Barom
-----	----	-----	------	-----	-----	------	------	-------	-----	-----
00:00	13.6	13.6	13.6	81	8.9	1	4	292	0.00	30.317 
00:05	13.5	13.5	13.5	81	8.8	1	6	292	0.00	30.317 
00:10	13.1	13.1	13.1	81	8.4	2	6	270	0.00	30.317 
00:15	12.9	12.9	12.9	79	7.6	1	4	292	0.00	30.325 
00:20	12.8	12.8	12.8	78	7.3	2	5	270	0.00	30.325 
00:25	12.6	12.6	12.6	77	6.8	1	6	315	0.00	30.325 
00:30	12.6	12.6	12.6	77	6.8	1	3	270	0.00	30.334 
00:35	12.4	12.4	12.4	77	6.6	1	7	292	0.00	30.334 
00:40	12.3	12.3	12.3	76	6.2	1	4	338	0.00	30.334 
00:45	12.1	12.1	12.1	76	6.0	1	4	292	0.00	30.337 
00:50	12.1	12.1	12.1	76	6.0	1	3	315	0.00	30.337 
00:55	11.7	11.7	11.7	72	4.4	2	7	338	0.00	30.337 
01:00	11.2	11.2	11.2	67	2.4	1	7	0	0.00	30.349 
01:05	11.1	11.1	11.1	64	1.3	1	6	338	0.00	30.349 
01:10	10.9	10.9	10.9	63	0.8	1	6	338	0.00	30.349 
01:15	10.7	10.7	10.7	61	-0.1	2	9	338	0.00	30.353 
01:20	10.5	10.5	10.5	61	-0.3	2	5	292	0.00	30.353 
01:25	10.4	10.4	10.4	61	-0.3	2	6	338	0.00	30.353 
01:30	10.2	10.2	10.2	61	-0.5	1	5	292	0.00	30.368 
01:35	10.0	10.0	10.0	61	-0.7	1	5	292	0.00	30.368 
01:40	9.9	9.9	9.9	61	-0.8	0	3	315	0.00	30.368 
01:45	9.7	9.7	9.7	60	-1.4	1	4	338	0.00	30.371 
01:50	9.5	9.5	9.5	60	-1.5	1	4	292	0.00	30.371 
01:55	9.5	9.5	9.5	59	-1.9	1	5	338	0.00	30.371 
02:00	9.3	9.3	9.3	59	-2.1	1	6	315	0.00	30.381 
02:05	9.2	9.2	9.2	59	-2.2	1	4	292	0.00	30.381 
02:10	9.0	9.0	9.0	59	-2.4	0	3	292	0.00	30.381 
02:15	8.8	8.8	8.8	59	-2.6	1	3	292	0.00	30.387 
02:20	8.6	8.6	8.6	59	-2.8	0	2	292	0.00	30.387 
02:25	8.4	8.4	8.4	58	-3.3	0	2	292	0.00	30.387 
02:30	8.3	8.3	8.3	58	-3.4	1	3	292	0.00	30.396 
02:35	8.1	8.1	8.1	58	-3.6	0	3	292	0.00	30.396 
02:40	7.9	7.9	7.9	57	-4.1	1	3	292	0.00	30.396 
02:45	7.7	7.7	7.7	57	-4.3	1	3	292	0.00	30.403 
02:50	7.6	7.6	7.6	57	-4.4	0	3	292	0.00	30.403 
02:55	7.4	7.4	7.4	57	-4.6	0	2	292	0.00	30.403 
03:00	7.4	7.4	7.4	57	-4.6	1	3	292	0.00	30.407 
03:05	7.2	7.2	7.2	57	-4.8	1	4	292	0.00	30.407 
03:10	7.2	7.2	7.2	57	-4.8	0	2	292	0.00	30.407 
03:15	7.0	7.0	7.0	57	-5.0	0	2	292	0.00	30.421 
03:20	6.9	6.9	6.9	57	-5.1	0	2	292	0.00	30.421 
03:25	6.7	6.7	6.7	58	-4.9	0	2	292	0.00	30.421 
03:30	6.5	6.5	6.5	58	-5.1	0	1	292	0.00	30.423 
03:35	6.3	6.3	6.3	58	-5.3	0	1	292	0.00	30.423 
03:40	6.3	6.3	6.3	58	-5.3	0	2	292	0.00	30.423 
03:45	6.1	6.1	6.1	58	-5.5	0	2	292	0.00	30.433 
03:50	6.1	6.1	6.1	58	-5.5	0	1	292	0.00	30.433 
03:55	6.0	6.0	6.0	57	-5.9	0	1	292	0.00	30.433 
04:00	5.8	5.8	5.8	57	-6.1	0	2	292	0.00	30.438 
04:05	5.8	5.8	5.8	56	-6.5	1	3	292	0.00	30.438 
04:10	5.8	5.8	5.8	55	-6.8	1	4	292	0.00	30.438 
04:15	5.8	5.8	5.8	55	-6.8	0	2	292	0.00	30.441 
04:20	5.8	5.8	5.8	54	-7.2	0	1	292	0.00	30.441 
04:25	5.6	5.6	5.6	54	-7.4	0	2	292	0.00	30.441 
04:30	5.4	5.4	5.4	54	-7.6	0	3	292	0.00	30.454 
04:35	5.4	5.4	5.4	54	-7.6	0	2	292	0.00	30.454 
04:40	5.2	5.2	5.2	54	-7.8	0	2	292	0.00	30.454 
04:45	5.2	5.2	5.2	54	-7.8	0	1	292	0.00	30.458 
04:50	5.2	5.2	5.2	54	-7.8	0	1	292	0.00	30.458 
04:55	5.0	5.0	5.0	54	-8.0	0	1	292	0.00	30.458 
05:00	4.8	4.8	4.8	55	-7.8	0	0	---	0.00	30.462 
05:05	4.7	4.7	4.7	56	-7.5	0	0	---	0.00	30.462 
05:10	4.7	4.7	4.7	56	-7.5	0	1	292	0.00	30.462 
05:15	4.7	4.7	4.7	56	-7.5	0	1	292	0.00	30.467 
05:20	4.7	4.7	4.7	57	-7.1	0	0	---	0.00	30.467 
05:25	4.5	4.5	4.5	57	-7.3	0	0	---	0.00	30.467 
05:30	4.3	4.3	4.3	57	-7.5	0	0	---	0.00	30.473 
05:35	4.3	4.3	4.3	58	-7.2	0	0	---	0.00	30.473 
05:40	4.1	4.1	4.1	58	-7.4	0	1	292	0.00	30.473 
05:45	3.9	3.9	3.9	58	-7.5	0	0	---	0.00	30.480 
05:50	3.7	3.7	3.7	59	-7.4	0	1	292	0.00	30.480 
05:55	3.5	3.5	3.5	59	-7.6	0	0	---	0.00	30.480 
06:00	3.5	3.5	3.5	60	-7.2	0	0	---	0.00	30.484 
06:05	3.5	3.5	3.5	60	-7.2	0	0	---	0.00	30.484 
06:10	3.4	3.4	3.4	61	-7.0	0	0	---	0.00	30.484 
06:15	3.4	3.4	3.4	61	-7.0	0	0	---	0.00	30.486 
06:20	3.4	3.4	3.4	61	-7.0	0	0	---	0.00	30.486 
06:25	3.4	3.4	3.4	62	-6.7	0	0	---	0.00	30.486 
06:30	3.2	3.2	3.2	62	-6.8	0	0	---	0.00	30.493 
06:35	3.2	3.2	3.2	62	-6.8	0	0	---	0.00	30.493 
06:40	3.2	3.2	3.2	62	-6.8	0	0	---	0.00	30.493 
06:45	3.2	3.2	3.2	62	-6.8	0	0	---	0.00	30.495 
06:50	3.0	3.0	3.0	63	-6.7	0	0	---	0.00	30.495 
06:55	3.0	3.0	3.0	63	-6.7	0	0	---	0.00	30.495 
07:00	2.8	2.8	2.8	63	-6.9	0	0	---	0.00	30.497 
07:05	2.6	2.6	2.6	64	-6.8	0	0	---	0.00	30.497 
07:10	2.4	2.4	2.4	64	-7.0	0	0	---	0.00	30.497 
07:15	2.4	2.4	2.4	65	-6.6	0	0	---	0.00	30.504 
07:20	2.4	2.4	2.4	65	-6.6	0	0	---	0.00	30.504 
07:25	2.6	2.6	2.6	66	-6.1	0	0	---	0.00	30.504 
07:30	3.0	3.0	3.0	67	-5.4	0	0	---	0.00	30.509 
07:35	3.4	3.4	3.4	67	-5.1	0	1	292	0.00	30.509 
07:40	3.7	3.7	3.7	67	-4.8	0	0	---	0.00	30.509 
07:45	3.9	3.9	3.9	66	-4.9	0	0	---	0.00	30.510 
07:50	4.1	4.1	4.1	66	-4.7	0	1	292	0.00	30.510 
07:55	4.1	4.1	4.1	65	-5.0	0	0	---	0.00	30.510 
08:00	4.3	4.3	4.3	65	-4.8	0	1	292	0.00	30.520 
08:05	4.5	4.5	4.5	65	-4.6	0	1	292	0.00	30.520 
08:10	4.8	4.8	4.8	65	-4.3	0	1	292	0.00	30.520 
08:15	5.0	5.0	5.0	65	-4.2	0	1	292	0.00	30.523 
08:20	5.4	5.4	5.4	65	-3.8	0	1	292	0.00	30.523 
08:25	5.6	5.6	5.6	65	-3.6	0	1	292	0.00	30.523 
08:30	6.0	6.0	6.0	65	-3.2	0	1	292	0.00	30.522 
08:35	6.1	6.1	6.1	65	-3.1	0	1	292	0.00	30.522 
08:40	6.3	6.3	6.3	65	-2.9	0	3	292	0.00	30.522 
08:45	6.5	6.5	6.5	65	-2.7	0	1	292	0.00	30.525 
08:50	6.7	6.7	6.7	65	-2.5	0	1	292	0.00	30.525 
08:55	7.0	7.0	7.0	65	-2.2	0	1	292	0.00	30.525 
09:00	7.2	7.2	7.2	65	-2.1	0	1	292	0.00	30.534 
09:05	7.2	7.2	7.2	66	-1.7	0	1	292	0.00	30.534 
09:10	7.4	7.4	7.4	66	-1.5	0	2	292	0.00	30.534 
09:15	7.4	7.4	7.4	66	-1.5	0	2	292	0.00	30.536 
09:20	7.6	7.6	7.6	67	-1.0	0	1	292	0.00	30.536 
09:25	8.1	8.1	8.1	68	-0.2	0	1	292	0.00	30.536 
09:30	8.3	8.3	8.3	67	-0.4	0	2	292	0.00	30.539 
09:35	8.4	8.4	8.4	67	-0.3	0	2	292	0.00	30.539 
09:40	8.6	8.6	8.6	67	-0.1	0	2	292	0.00	30.539 
09:45	8.8	8.8	8.8	67	0.1	0	2	292	0.00	30.540 
09:50	9.2	9.2	9.2	67	0.5	0	2	292	0.00	30.540 
09:55	9.2	9.2	9.2	66	0.2	0	1	292	0.00	30.540 
10:00	9.5	9.5	9.5	66	0.5	0	2	292	0.00	30.540 
10:05	10.0	10.0	10.0	66	0.9	0	2	292	0.00	30.540 
10:10	10.2	10.2	10.2	65	0.8	0	2	292	0.00	30.540 
10:15	10.7	10.7	10.7	65	1.3	0	2	292	0.00	30.543 
10:20	10.7	10.7	10.7	66	1.6	0	2	292	0.00	30.543 
10:25	11.2	11.2	11.2	66	2.1	0	2	292	0.00	30.543 
10:30	11.6	11.6	11.6	66	2.5	0	2	292	0.00	30.543 
10:35	11.4	11.4	11.4	66	2.3	0	3	292	0.00	30.543 
10:40	11.6	11.6	11.6	67	2.8	0	2	292	0.00	30.543 
10:45	11.4	11.4	11.4	67	2.6	0	2	292	0.00	30.544 
10:50	11.7	11.7	11.7	68	3.2	1	3	292	0.00	30.544 
10:55	11.9	11.9	11.9	69	3.7	1	2	292	0.00	30.544 
11:00	12.3	12.3	12.3	68	3.8	1	3	292	0.00	30.539 
11:05	12.4	12.4	12.4	68	3.9	1	3	292	0.00	30.539 
11:10	12.4	12.4	12.4	69	4.2	1	5	292	0.00	30.539 
11:15	12.6	12.6	12.6	69	4.4	1	5	292	0.00	30.536 
11:20	12.9	12.9	12.9	69	4.7	1	3	292	0.00	30.536 
11:25	13.1	13.1	13.1	68	4.6	1	5	292	0.00	30.536 
11:30	12.9	12.9	12.9	68	4.4	1	3	292	0.00	30.541 
11:35	13.1	13.1	13.1	69	4.9	0	2	292	0.00	30.541 
11:40	13.5	13.5	13.5	69	5.3	0	2	292	0.00	30.541 
11:45	13.8	13.8	13.8	69	5.5	0	1	292	0.00	30.538 
11:50	14.3	14.3	14.3	68	5.7	1	3	292	0.00	30.538 
11:55	14.8	14.8	14.8	67	5.9	1	3	292	0.00	30.538 
12:00	14.8	14.8	14.8	63	4.5	2	4	292	0.00	30.535 
12:05	14.9	14.9	14.9	64	5.0	1	4	270	0.00	30.535 
12:10	15.2	15.2	15.2	63	4.9	2	5	270	0.00	30.535 
12:15	15.1	15.1	15.1	61	4.1	2	4	270	0.00	30.535 
12:20	14.9	14.9	14.9	62	4.3	3	5	270	0.00	30.535 
12:25	15.1	15.1	15.1	61	4.1	2	5	270	0.00	30.535 
12:30	15.1	15.1	15.1	61	4.1	2	5	270	0.00	30.534 
12:35	15.1	15.1	15.1	60	3.7	2	5	292	0.00	30.534 
12:40	14.8	14.8	14.8	60	3.5	1	5	315	0.00	30.534 
12:45	14.8	14.8	14.8	61	3.8	1	5	270	0.00	30.533 
12:50	14.8	14.8	14.8	61	3.8	2	4	270	0.00	30.533 
12:55	14.9	14.9	14.9	61	3.9	1	4	270	0.00	30.533 
13:00	14.9	14.9	14.9	61	3.9	2	4	270	0.00	30.529 
13:05	15.1	15.1	15.1	60	3.7	2	5	270	0.00	30.529 
13:10	15.4	15.4	15.4	60	4.0	0	3	270	0.00	30.529 
13:15	15.4	15.4	15.4	58	3.3	2	4	270	0.00	30.525 
13:20	15.1	15.1	15.1	60	3.7	2	4	270	0.00	30.525 
13:25	15.4	15.4	15.4	60	4.0	2	10	270	0.00	30.525 
13:30	15.4	15.4	15.4	59	3.7	3	6	270	0.00	30.529 
13:35	15.4	15.4	15.4	60	4.0	2	5	292	0.00	30.529 
13:40	15.4	15.4	15.4	59	3.7	2	4	270	0.00	30.529 
13:45	15.2	15.2	15.2	59	3.5	2	5	270	0.00	30.525 
13:50	15.9	15.9	15.9	62	5.2	1	4	270	0.00	30.525 
13:55	16.2	16.2	16.2	58	4.1	3	6	270	0.00	30.525 
14:00	15.9	15.9	15.9	57	3.4	2	6	270	0.00	30.523 
14:05	15.9	15.9	15.9	57	3.4	2	5	292	0.00	30.523 
14:10	15.9	15.9	15.9	58	3.8	2	4	292	0.00	30.523 
14:15	16.1	16.1	16.1	58	4.0	1	4	292	0.00	30.524 
14:20	15.9	15.9	15.9	59	4.1	2	5	270	0.00	30.524 
14:25	15.7	15.7	15.7	60	4.3	3	6	248	0.00	30.524 
14:30	15.7	15.7	15.7	59	4.0	2	3	270	0.00	30.521 
14:35	15.7	15.7	15.7	60	4.3	1	4	270	0.00	30.521 
14:40	15.6	15.6	15.6	60	4.2	2	5	270	0.00	30.521 
14:45	15.7	15.7	15.7	62	5.0	2	4	292	0.00	30.519 
14:50	15.9	15.9	15.9	59	4.1	1	4	292	0.00	30.519 
14:55	15.9	15.9	15.9	58	3.8	2	5	292	0.00	30.519 
15:00	15.9	15.9	15.9	60	4.5	1	3	292	0.00	30.517 
15:05	15.9	15.9	15.9	62	5.2	2	5	270	0.00	30.517 
15:10	15.9	15.9	15.9	66	6.6	1	4	270	0.00	30.517 
15:15	16.4	16.4	16.4	67	7.4	2	5	270	0.00	30.512 
15:20	16.4	16.4	16.4	64	6.4	2	4	270	0.00	30.512 
15:25	15.9	15.9	15.9	66	6.6	2	4	270	0.00	30.512 
15:30	16.1	16.1	16.1	68	7.4	1	3	270	0.00	30.507 
15:35	16.9	16.9	16.9	66	7.5	2	5	270	0.00	30.507 
15:40	16.4	16.4	16.4	62	5.7	3	10	292	0.00	30.507 
15:45	15.9	15.9	15.9	62	5.2	2	6	270	0.00	30.508 
15:50	15.6	15.6	15.6	64	5.6	2	6	292	0.00	30.508 
15:55	15.9	15.9	15.9	65	6.2	1	4	292	0.00	30.508 
16:00	16.7	16.7	16.7	63	6.3	2	4	270	0.00	30.510 
16:05	16.9	16.9	16.9	59	5.1	2	5	270	0.00	30.510 
16:10	16.5	16.5	16.5	59	4.7	2	4	270	0.00	30.510 
16:15	15.9	15.9	15.9	61	4.9	3	6	270	0.00	30.519 
16:20	15.6	15.6	15.6	60	4.2	3	6	270	0.00	30.519 
16:25	15.7	15.7	15.7	59	4.0	3	5	270	0.00	30.519 
16:30	15.9	15.9	15.9	58	3.8	2	5	270	0.00	30.524 
16:35	15.9	15.9	15.9	59	4.1	1	5	270	0.00	30.524 
16:40	15.9	15.9	15.9	58	3.8	1	4	270	0.00	30.524 
16:45	15.9	15.9	15.9	58	3.8	1	4	270	0.00	30.526 
16:50	15.7	15.7	15.7	57	3.2	1	4	270	0.00	30.526 
16:55	15.7	15.7	15.7	57	3.2	2	4	292	0.00	30.526 
17:00	15.4	15.4	15.4	56	2.5	3	9	315	0.00	30.528 
17:05	15.4	15.4	15.4	56	2.5	2	4	270	0.00	30.528 
17:10	15.4	15.4	15.4	57	2.9	1	2	270	0.00	30.528 
17:15	15.4	15.4	15.4	56	2.5	2	11	292	0.00	30.534 
17:20	15.4	15.4	15.4	56	2.5	1	9	292	0.00	30.534 
17:25	15.4	15.4	15.4	55	2.2	1	4	292	0.00	30.534 
17:30	15.2	15.2	15.2	55	2.0	1	4	248	0.00	30.535 
17:35	15.1	15.1	15.1	56	2.3	1	3	248	0.00	30.535 
17:40	14.9	14.9	14.9	57	2.5	1	4	270	0.00	30.535 
17:45	14.8	14.8	14.8	58	2.7	1	3	270	0.00	30.530 
17:50	14.6	14.6	14.6	59	2.9	1	3	270	0.00	30.530 
17:55	14.6	14.6	14.6	59	2.9	1	3	270	0.00	30.530 
18:00	14.4	14.4	14.4	60	3.1	1	4	270	0.00	30.531 
18:05	14.3	14.3	14.3	61	3.3	1	3	270	0.00	30.531 
18:10	14.1	14.1	14.1	61	3.2	2	3	270	0.00	30.531 
18:15	14.0	14.0	14.0	62	3.4	1	4	270	0.00	30.542 
18:20	13.8	13.8	13.8	62	3.2	2	4	270	0.00	30.542 
18:25	13.8	13.8	13.8	62	3.2	2	4	270	0.00	30.542 
18:30	13.6	13.6	13.6	63	3.4	1	5	338	0.00	30.542 
18:35	13.5	13.5	13.5	63	3.3	1	3	338	0.00	30.542 
18:40	13.5	13.5	13.5	63	3.3	1	3	338	0.00	30.542 
18:45	13.5	13.5	13.5	63	3.3	1	4	292	0.00	30.544 
18:50	13.5	13.5	13.5	63	3.3	1	3	292	0.00	30.544 
18:55	13.5	13.5	13.5	63	3.3	1	5	292	0.00	30.544 
19:00	13.3	13.3	13.3	63	3.1	1	3	292	0.00	30.543 
19:05	13.3	13.3	13.3	63	3.1	0	2	292	0.00	30.543 
19:10	13.3	13.3	13.3	63	3.1	1	3	292	0.00	30.543 
19:15	13.3	13.3	13.3	64	3.4	1	3	292	0.00	30.545 
19:20	13.3	13.3	13.3	64	3.4	1	3	292	0.00	30.545 
19:25	13.3	13.3	13.3	64	3.4	0	3	292	0.00	30.545 
19:30	13.3	13.3	13.3	64	3.4	0	2	292	0.00	30.546 
19:35	13.1	13.1	13.1	64	3.2	0	2	292	0.00	30.546 
19:40	13.1	13.1	13.1	65	3.6	0	1	292	0.00	30.546 
19:45	13.1	13.1	13.1	65	3.6	0	1	292	0.00	30.544 
19:50	13.1	13.1	13.1	64	3.2	0	3	292	0.00	30.544 
19:55	13.1	13.1	13.1	64	3.2	0	1	292	0.00	30.544 
20:00	13.1	13.1	13.1	65	3.6	0	1	292	0.00	30.544 
20:05	13.1	13.1	13.1	65	3.6	1	3	248	0.00	30.544 
20:10	12.9	12.9	12.9	65	3.4	1	2	248	0.00	30.544 
20:15	12.8	12.8	12.8	65	3.3	1	3	248	0.00	30.538 
20:20	12.6	12.6	12.6	65	3.1	0	3	248	0.00	30.538 
20:25	12.6	12.6	12.6	65	3.1	0	2	248	0.00	30.538 
20:30	12.4	12.4	12.4	65	2.9	0	1	248	0.00	30.540 
20:35	12.4	12.4	12.4	65	2.9	0	2	248	0.00	30.540 
20:40	12.4	12.4	12.4	65	2.9	0	2	248	0.00	30.540 
20:45	12.4	12.4	12.4	65	2.9	0	1	248	0.00	30.542 
20:50	12.3	12.3	12.3	65	2.8	0	1	248	0.00	30.542 
20:55	12.1	12.1	12.1	65	2.6	0	1	248	0.00	30.542 
21:00	11.9	11.9	11.9	65	2.4	0	2	248	0.00	30.542 
21:05	11.7	11.7	11.7	65	2.2	0	1	248	0.00	30.542 
21:10	11.6	11.6	11.6	65	2.1	0	0	---	0.00	30.542 
21:15	11.4	11.4	11.4	65	2.0	0	1	248	0.00	30.538 
21:20	11.2	11.2	11.2	66	2.1	0	0	---	0.00	30.538 
21:25	11.1	11.1	11.1	66	2.0	0	0	---	0.00	30.538 
21:30	10.9	10.9	10.9	66	1.8	0	1	248	0.00	30.537 
21:35	10.7	10.7	10.7	67	1.9	0	0	---	0.00	30.537 
21:40	10.7	10.7	10.7	67	1.9	0	0	---	0.00	30.537 
21:45	10.5	10.5	10.5	67	1.7	0	0	---	0.00	30.532 
21:50	10.4	10.4	10.4	67	1.6	0	0	---	0.00	30.532 
21:55	10.2	10.2	10.2	67	1.5	0	0	---	0.00	30.532 
22:00	10.0	10.0	10.0	67	1.3	0	0	---	0.00	30.529 
22:05	9.9	9.9	9.9	68	1.5	0	0	---	0.00	30.529 
22:10	9.7	9.7	9.7	68	1.3	0	0	---	0.00	30.529 
22:15	9.5	9.5	9.5	69	1.4	0	0	---	0.00	30.525 
22:20	9.3	9.3	9.3	69	1.2	0	0	---	0.00	30.525 
22:25	9.2	9.2	9.2	69	1.1	0	0	---	0.00	30.525 
22:30	8.8	8.8	8.8	69	0.7	0	0	---	0.00	30.530 
22:35	8.6	8.6	8.6	69	0.5	0	0	---	0.00	30.530 
22:40	8.4	8.4	8.4	70	0.7	0	0	---	0.00	30.530 
22:45	8.3	8.3	8.3	70	0.6	0	0	---	0.00	30.525 
22:50	7.9	7.9	7.9	70	0.2	0	0	---	0.00	30.525 
22:55	7.7	7.7	7.7	70	-0.0	0	0	---	0.00	30.525 
23:00	7.6	7.6	7.6	71	0.2	0	0	---	0.00	30.525 
23:05	7.4	7.4	7.4	72	0.3	0	0	---	0.00	30.525 
23:10	7.4	7.4	7.4	73	0.6	0	0	---	0.00	30.525 
23:15	7.4	7.4	7.4	73	0.6	0	0	---	0.00	30.525 
23:20	7.4	7.4	7.4	74	0.9	0	0	---	0.00	30.525 
23:25	7.4	7.4	7.4	74	0.9	0	0	---	0.00	30.525 
23:30	7.4	7.4	7.4	74	0.9	0	0	---	0.00	30.523 
23:35	7.4	7.4	7.4	74	0.9	0	0	---	0.00	30.523 
23:40	7.6	7.6	7.6	75	1.4	0	0	---	0.00	30.523 
23:45	7.6	7.6	7.6	75	1.4	0	0	---	0.00	30.523 
23:50	7.6	7.6	7.6	75	1.4	0	0	---	0.00	30.523 
23:55	7.6	7.6	7.6	75	1.4	0	0	---	0.00	30.523 

CoCoRaHS
IN-AL-39
A2 Web Hosting
Creative Commons License
GoDaddy
search engine by freefind advanced

loaded 2018-11-15 16:04:40 • last modified 2010-11-18 10:43:29
Privacy PolicyDisclaimer
• wx.awcolley.com is powered by PmWiki v.2002016 •
• all content (unless otherwise noted) © 2018 A W Colley